Main page
METAR-TAF:

METAR-TAF

Airports :

Orio al Serio International Airport

Bergamo, Italy

latitude: 45-40N, longitude: 009-42E, elevation: 238 m

Current weather observation

The report was made 38 minutes ago, at 10:50 UTC
Wind 3 kt from the South, varying between East/Southeast and Southwest
Temperature 5°C
Humidity 52%
Pressure 1009 hPa
Visibility 10 km or more
no clouds below 1500 m and no cumulonimbus

METAR: LIME 221050Z 19003KT 120V230 CAVOK 05/M04 Q1009 NOSIG

Time: 12:28 (11:28 UTC)

Forecast

The report was made 6 hours and 28 minutes ago, at 05:00 UTC
Forecast valid from 22 at 06 UTC to 23 at 06 UTC
Wind 5 kt from variable directions
Visibility 10 km or more
no clouds below 1500 m and no cumulonimbus

TAF: LIME 220500Z 2206/2306 VRB05KT CAVOK

Weather observations and forecasts of more than 4000 airports (METAR and TAF reports).

The available stations are represented by yellow and red dots on the map.

Hover mouse over dot to see the name of the station.

Then click to see weather observations and forecasts.

To change the map : click on the green buttons with a black cross to zoom in, on the green button with a dash to zoom out, or on the green arrows for adjacent maps.


METAR-TAF: